EVERETT DAM ON PISCATAOUOG R: From 09/05/2020 05:00 to 09/20/2020 02:00

Date LAKE ELEVATION [FT] PRECIPITATION INCREMENT [IN] RESERVOIR RELEASES [CFS] TAILWATER STAGE [FT]
09/19/2020 05:00 -- 0.00 -- --
09/19/2020 04:00 340.01 0.00 -- 4.31
09/19/2020 03:00 340.01 0.00 -- 4.32
09/19/2020 02:00 340.01 0.00 -- 4.32
09/19/2020 01:00 340.01 0.00 -- 4.32
09/19/2020 00:00 340.01 0.00 -- 4.32
09/18/2020 23:00 340.01 0.00 -- 4.33
09/18/2020 22:00 340.01 0.00 -- 4.33
09/18/2020 21:00 340.01 0.00 -- 4.33
09/18/2020 20:00 340.01 0.00 -- 4.33
09/18/2020 19:00 340.01 0.00 0.9 4.33
09/18/2020 18:00 340.01 0.00 1.0 4.34
09/18/2020 17:00 340.01 0.00 1.0 4.34
09/18/2020 16:00 340.01 0.00 0.9 4.33
09/18/2020 15:00 340.01 0.00 1.0 4.34
09/18/2020 14:00 340.01 0.00 1.1 4.35
09/18/2020 13:00 340.01 0.00 1.1 4.35
09/18/2020 12:00 340.01 0.00 1.0 4.34
09/18/2020 11:00 340.01 0.00 1.0 4.34
09/18/2020 10:00 340.01 0.00 1.0 4.34
09/18/2020 09:00 340.01 0.00 1.0 4.34
09/18/2020 08:00 340.01 0.00 1.0 4.34
09/18/2020 07:00 340.01 0.00 1.0 4.34
09/18/2020 06:00 340.01 0.00 1.0 4.34
09/18/2020 05:00 340.01 0.00 1.0 4.34
09/18/2020 04:00 340.01 0.00 1.0 4.34
09/18/2020 03:00 340.01 0.00 1.0 4.34
09/18/2020 02:00 340.01 0.00 1.0 4.34
09/18/2020 01:00 340.01 0.00 1.1 4.35
09/18/2020 00:00 340.01 0.00 1.1 4.35
09/17/2020 23:00 340.01 0.00 1.1 4.35
09/17/2020 22:00 340.01 0.00 1.1 4.35
09/17/2020 21:00 340.01 0.00 1.1 4.35
09/17/2020 20:00 340.01 0.00 1.1 4.35
09/17/2020 19:00 340.01 0.00 1.1 4.35
09/17/2020 18:00 340.01 0.00 1.1 4.35
09/17/2020 17:00 340.01 0.00 -- --
09/17/2020 16:00 340.01 0.00 1.1 4.35
09/17/2020 15:00 340.01 0.00 1.2 4.36
09/17/2020 14:00 340.01 0.00 1.2 4.36
09/17/2020 13:00 340.01 0.00 1.2 4.36
09/17/2020 12:00 340.01 0.00 1.2 4.36
09/17/2020 11:00 340.01 0.00 1.2 4.36
09/17/2020 10:00 340.01 0.00 1.2 4.36
09/17/2020 09:00 340.01 0.00 1.2 4.36
09/17/2020 08:00 340.01 0.00 -- --
09/17/2020 07:00 340.01 0.00 1.1 4.35
09/17/2020 06:00 340.01 0.00 1.1 4.35
09/17/2020 05:00 340.01 0.00 1.1 4.35
09/17/2020 04:00 340.01 0.00 1.1 4.35
09/17/2020 03:00 340.01 0.00 1.1 4.35
09/17/2020 02:00 340.01 0.00 -- --
09/17/2020 01:00 340.01 0.00 -- --
09/17/2020 00:00 340.01 0.00 -- --
09/16/2020 23:00 340.01 0.00 -- --
09/16/2020 22:00 340.01 0.00 -- --
09/16/2020 21:00 340.01 0.00 -- --
09/16/2020 20:00 340.01 0.00 -- --
09/16/2020 19:00 340.01 0.00 -- --
09/16/2020 18:00 340.01 0.00 -- --
09/16/2020 17:00 340.01 0.00 -- --
09/16/2020 16:00 340.01 0.00 -- --
09/16/2020 15:00 340.01 0.00 -- --
09/16/2020 14:00 340.01 0.00 -- --
09/16/2020 13:00 340.01 0.00 -- --
09/16/2020 12:00 340.01 0.00 0.9 4.33
09/16/2020 11:00 340.01 0.00 0.9 4.33
09/16/2020 10:00 340.01 0.00 -- --
09/16/2020 09:00 340.01 0.00 1.4 4.37
09/16/2020 08:00 340.01 0.00 0.9 4.33
09/16/2020 07:00 340.01 0.00 -- --
09/16/2020 06:00 340.01 0.00 0.9 4.33
09/16/2020 05:00 340.01 0.00 1.0 4.34
09/16/2020 04:00 340.01 0.00 1.0 4.34
09/16/2020 03:00 340.01 0.00 1.0 4.34
09/16/2020 02:00 340.01 0.00 1.0 4.34
09/16/2020 01:00 340.01 0.00 1.0 4.34
09/16/2020 00:00 340.01 0.00 1.0 4.34
09/15/2020 23:00 340.01 0.00 1.0 4.34
09/15/2020 22:00 340.01 0.00 1.0 4.34
09/15/2020 21:00 340.01 0.00 1.0 4.34
09/15/2020 20:00 340.01 0.00 1.0 4.34
09/15/2020 19:00 340.01 0.00 1.0 4.34
09/15/2020 18:00 340.01 0.00 1.0 4.34
09/15/2020 17:00 340.01 0.00 1.0 4.34
09/15/2020 16:00 340.01 0.00 1.0 4.34
09/15/2020 15:00 340.01 0.00 1.0 4.34
09/15/2020 14:00 340.01 0.00 1.0 4.34
09/15/2020 13:00 340.01 0.00 1.0 4.34
09/15/2020 12:00 340.01 0.00 1.1 4.35
09/15/2020 11:00 340.01 0.00 1.1 4.35
09/15/2020 10:00 340.01 0.00 1.1 4.35
09/15/2020 09:00 340.01 0.00 1.1 4.35
09/15/2020 08:00 340.01 0.00 1.1 4.35
09/15/2020 07:00 340.01 0.00 1.0 4.34
09/15/2020 06:00 340.01 0.00 1.0 4.34
09/15/2020 05:00 340.01 0.00 1.0 4.34
09/15/2020 04:00 340.01 0.00 1.0 4.34
09/15/2020 03:00 340.01 0.00 1.0 4.34
09/15/2020 02:00 340.01 0.00 1.1 4.35
09/15/2020 01:00 340.01 0.00 1.1 4.35
09/15/2020 00:00 340.01 0.00 1.1 4.35
09/14/2020 23:00 340.01 0.00 1.1 4.35
09/14/2020 22:00 340.01 0.00 1.1 4.35
09/14/2020 21:00 340.01 0.00 1.1 4.35
09/14/2020 20:00 340.01 0.00 1.1 4.35
09/14/2020 19:00 340.01 0.00 1.1 4.35
09/14/2020 18:00 340.01 0.00 1.2 4.36
09/14/2020 17:00 340.04 0.00 1.2 4.36
09/14/2020 16:00 340.01 0.00 1.2 4.36
09/14/2020 15:00 340.01 0.00 1.2 4.36
09/14/2020 14:00 340.01 0.00 1.4 4.37
09/14/2020 13:00 340.04 0.00 1.4 4.37
09/14/2020 12:00 340.04 0.00 1.5 4.38
09/14/2020 11:00 340.01 0.00 1.4 4.37
09/14/2020 10:00 340.01 0.00 1.4 4.37
09/14/2020 09:00 340.04 0.00 1.5 4.38
09/14/2020 08:00 340.04 0.00 1.6 4.39
09/14/2020 07:00 340.04 0.00 1.5 4.38
09/14/2020 06:00 340.04 0.00 1.6 4.39
09/14/2020 05:00 340.04 0.00 1.5 4.38
09/14/2020 04:00 340.01 0.00 1.5 4.38
09/14/2020 03:00 340.04 0.00 1.5 4.38
09/14/2020 02:00 340.01 0.00 1.5 4.38
09/14/2020 01:00 340.01 0.00 1.5 4.38
09/14/2020 00:00 340.04 0.00 1.5 4.38
09/13/2020 23:00 340.01 0.00 1.5 4.38
09/13/2020 22:00 340.01 0.00 1.5 4.38
09/13/2020 21:00 340.01 0.00 1.5 4.38
09/13/2020 20:00 340.01 0.00 1.5 4.38
09/13/2020 19:00 340.01 0.00 1.5 4.38
09/13/2020 18:00 340.01 0.00 1.5 4.38
09/13/2020 17:00 340.01 0.00 1.5 4.38
09/13/2020 16:00 340.01 0.00 1.5 4.38
09/13/2020 15:00 340.01 0.00 1.5 4.38
09/13/2020 14:00 340.01 0.00 1.5 4.38
09/13/2020 13:00 340.01 0.00 1.5 4.38
09/13/2020 12:00 340.01 0.00 1.4 4.37
09/13/2020 11:00 340.04 0.00 1.4 4.37
09/13/2020 10:00 340.01 0.00 1.4 4.37
09/13/2020 09:00 340.04 0.00 1.5 4.38
09/13/2020 08:00 340.04 0.00 1.5 4.38
09/13/2020 07:00 340.04 0.00 1.5 4.38
09/13/2020 06:00 340.04 0.00 1.5 4.38
09/13/2020 05:00 340.04 0.00 1.5 4.38
09/13/2020 04:00 340.04 0.00 1.5 4.38
09/13/2020 03:00 340.04 0.00 1.5 4.38
09/13/2020 02:00 340.04 0.00 1.5 4.38
09/13/2020 01:00 340.04 0.00 1.5 4.38
09/13/2020 00:00 340.04 0.00 1.5 4.38
09/12/2020 23:00 340.04 0.00 1.5 4.38
09/12/2020 22:00 340.04 0.00 1.5 4.38
09/12/2020 21:00 340.04 0.00 1.5 4.38
09/12/2020 20:00 340.04 0.00 1.5 4.38
09/12/2020 19:00 340.04 0.00 1.5 4.38
09/12/2020 18:00 340.04 0.00 1.5 4.38
09/12/2020 17:00 340.04 0.00 1.5 4.38
09/12/2020 16:00 340.04 0.00 1.6 4.39
09/12/2020 15:00 340.04 0.00 1.6 4.39
09/12/2020 14:00 340.04 0.00 1.6 4.39
09/12/2020 13:00 340.04 0.00 1.6 4.39
09/12/2020 12:00 340.04 0.00 1.6 4.39
09/12/2020 11:00 340.04 0.00 1.6 4.39
09/12/2020 10:00 340.04 0.00 1.6 4.39
09/12/2020 09:00 340.04 0.00 1.6 4.39
09/12/2020 08:00 340.04 0.00 1.8 4.40
09/12/2020 07:00 340.04 0.00 1.6 4.39
09/12/2020 06:00 340.04 0.00 1.6 4.39
09/12/2020 05:00 340.04 0.00 1.6 4.39
09/12/2020 04:00 340.04 0.00 1.8 4.40
09/12/2020 03:00 340.04 0.00 1.8 4.40
09/12/2020 02:00 340.04 0.00 1.8 4.40
09/12/2020 01:00 340.04 0.00 1.8 4.40
09/12/2020 00:00 340.04 0.00 1.9 4.41
09/11/2020 23:00 340.04 0.00 1.9 4.41
09/11/2020 22:00 340.04 0.00 1.9 4.41
09/11/2020 21:00 340.04 0.00 1.9 4.41
09/11/2020 20:00 340.04 0.00 1.9 4.41
09/11/2020 19:00 340.04 0.00 1.9 4.41
09/11/2020 18:00 340.04 0.00 1.9 4.41
09/11/2020 17:00 340.04 0.00 1.9 4.41
09/11/2020 16:00 340.04 0.00 1.9 4.41
09/11/2020 15:00 340.04 0.00 1.9 4.41
09/11/2020 14:00 340.04 0.00 1.9 4.41
09/11/2020 13:00 340.04 0.00 1.9 4.41
09/11/2020 12:00 340.04 0.00 2.0 4.42
09/11/2020 11:00 340.04 0.00 2.0 4.42
09/11/2020 10:00 340.07 0.00 2.0 4.42
09/11/2020 09:00 340.04 0.00 1.9 4.41
09/11/2020 08:00 340.04 0.00 1.9 4.41
09/11/2020 07:00 340.04 0.00 1.9 4.41
09/11/2020 06:00 340.07 0.00 2.0 4.42
09/11/2020 05:00 340.07 0.00 2.0 4.42
09/11/2020 04:00 340.07 0.00 2.0 4.42
09/11/2020 03:00 340.07 0.00 2.0 4.42
09/11/2020 02:00 340.07 0.00 2.0 4.42
09/11/2020 01:00 340.07 0.00 2.0 4.42
09/11/2020 00:00 340.07 0.00 2.2 4.43
09/10/2020 23:00 340.07 0.00 2.2 4.43
09/10/2020 22:00 340.07 0.00 2.2 4.43
09/10/2020 21:00 340.07 0.00 2.2 4.43
09/10/2020 20:00 340.07 0.01 2.2 4.43
09/10/2020 19:00 340.07 0.00 2.2 4.43
09/10/2020 18:00 340.07 0.00 2.2 4.43
09/10/2020 17:00 340.07 0.00 -- --
09/10/2020 16:00 340.07 0.00 -- --
09/10/2020 15:00 340.07 0.00 -- --
09/10/2020 14:00 340.04 0.00 -- --
09/10/2020 13:00 340.04 0.00 -- --
09/10/2020 12:00 340.04 0.00 -- --
09/10/2020 11:00 340.04 0.01 -- --
09/10/2020 10:00 340.07 0.00 -- --
09/10/2020 09:00 340.07 0.00 -- --
09/10/2020 08:00 340.07 0.00 -- --
09/10/2020 07:00 340.04 0.00 -- --
09/10/2020 06:00 340.07 0.00 -- --
09/10/2020 05:00 340.04 0.00 2.2 4.43
09/10/2020 04:00 340.07 0.00 2.2 4.43
09/10/2020 03:00 340.07 0.00 2.2 4.43
09/10/2020 02:00 340.07 0.00 2.2 4.43
09/10/2020 01:00 340.07 0.00 2.2 4.43
09/10/2020 00:00 340.07 0.00 2.2 4.43
09/09/2020 23:00 340.07 0.00 2.2 4.43
09/09/2020 22:00 340.07 0.00 2.2 4.43
09/09/2020 21:00 340.07 0.00 2.2 4.43
09/09/2020 20:00 340.07 0.00 2.2 4.43
09/09/2020 19:00 340.07 0.00 2.2 4.43
09/09/2020 18:00 340.07 0.00 2.3 4.44
09/09/2020 17:00 340.07 0.00 2.3 4.44
09/09/2020 16:00 340.07 0.00 2.3 4.44
09/09/2020 15:00 340.07 0.00 2.2 4.43
09/09/2020 14:00 340.07 0.00 2.2 4.43
09/09/2020 13:00 340.07 0.00 2.2 4.43
09/09/2020 12:00 340.07 0.00 2.2 4.43
09/09/2020 11:00 340.07 0.00 2.2 4.43
09/09/2020 10:00 340.07 0.00 2.2 4.43
09/09/2020 09:00 340.07 0.00 2.2 4.43
09/09/2020 08:00 340.07 0.00 2.2 4.43
09/09/2020 07:00 340.07 0.00 2.3 4.44
09/09/2020 06:00 340.07 0.00 2.2 4.43
09/09/2020 05:00 340.07 0.00 2.2 4.43
09/09/2020 04:00 340.07 0.00 2.2 4.43
09/09/2020 03:00 340.07 0.00 2.3 4.44
09/09/2020 02:00 340.07 0.00 2.2 4.43
09/09/2020 01:00 340.07 0.00 2.3 4.44
09/09/2020 00:00 340.07 0.00 2.3 4.44
09/08/2020 23:00 340.07 0.00 2.3 4.44
09/08/2020 22:00 340.07 0.00 2.3 4.44
09/08/2020 21:00 340.07 0.00 2.3 4.44
09/08/2020 20:00 340.07 0.00 2.5 4.45
09/08/2020 19:00 340.07 0.00 2.5 4.45
09/08/2020 18:00 340.07 0.00 2.5 4.45
09/08/2020 17:00 340.07 0.00 2.3 4.44
09/08/2020 16:00 340.07 0.00 2.3 4.44
09/08/2020 15:00 340.07 0.00 2.3 4.44
09/08/2020 14:00 340.07 0.00 2.3 4.44
09/08/2020 13:00 340.07 0.00 2.3 4.44
09/08/2020 12:00 340.07 0.00 2.2 4.43
09/08/2020 11:00 340.07 0.00 2.2 4.43
09/08/2020 10:00 340.07 0.00 2.3 4.44
09/08/2020 09:00 340.07 0.00 2.3 4.44
09/08/2020 08:00 340.07 0.00 2.3 4.44
09/08/2020 07:00 340.07 0.00 2.3 4.44
09/08/2020 06:00 340.07 0.00 2.3 4.44
09/08/2020 05:00 340.07 0.00 2.3 4.44
09/08/2020 04:00 340.07 0.00 2.3 4.44
09/08/2020 03:00 340.07 0.00 2.3 4.44
09/08/2020 02:00 340.07 0.00 2.3 4.44
09/08/2020 01:00 340.07 0.00 2.3 4.44
09/08/2020 00:00 340.07 0.00 2.3 4.44
09/07/2020 23:00 340.07 0.00 2.5 4.45
09/07/2020 22:00 340.07 0.00 2.3 4.44
09/07/2020 21:00 340.07 0.00 2.5 4.45
09/07/2020 20:00 340.07 0.00 2.5 4.45
09/07/2020 19:00 340.07 0.00 2.5 4.45
09/07/2020 18:00 340.07 0.00 2.5 4.45
09/07/2020 17:00 340.07 0.00 -- --
09/07/2020 16:00 340.07 0.00 2.5 4.45
09/07/2020 15:00 340.07 0.00 2.5 4.45
09/07/2020 14:00 340.07 0.00 2.5 4.45
09/07/2020 13:00 340.07 0.00 2.5 4.45
09/07/2020 12:00 340.07 0.00 2.5 4.45
09/07/2020 11:00 340.07 0.00 2.5 4.45
09/07/2020 10:00 340.07 0.00 2.5 4.45
09/07/2020 09:00 340.07 0.00 2.5 4.45
09/07/2020 08:00 340.07 0.00 2.7 4.46
09/07/2020 07:00 340.10 0.00 2.7 4.46
09/07/2020 06:00 340.07 0.00 2.7 4.46
09/07/2020 05:00 340.10 0.00 2.7 4.46
09/07/2020 04:00 340.10 0.00 2.7 4.46
09/07/2020 03:00 340.10 0.00 2.7 4.46
09/07/2020 02:00 340.10 0.00 2.8 4.47
09/07/2020 01:00 340.10 0.00 2.8 4.47
09/07/2020 00:00 340.10 0.00 2.8 4.47
09/06/2020 23:00 340.10 0.00 2.8 4.47
09/06/2020 22:00 340.10 0.00 2.8 4.47
09/06/2020 21:00 340.10 0.00 2.8 4.47
09/06/2020 20:00 340.10 0.00 2.8 4.47
09/06/2020 19:00 340.10 0.00 2.8 4.47
09/06/2020 18:00 340.10 0.00 3.0 4.48
09/06/2020 17:00 340.10 0.00 3.0 4.48
09/06/2020 16:00 340.10 0.00 2.8 4.47
09/06/2020 15:00 340.10 0.00 2.8 4.47
09/06/2020 14:00 340.10 0.00 3.0 4.48
09/06/2020 13:00 340.10 0.00 3.0 4.48
09/06/2020 12:00 340.10 0.00 3.0 4.48
09/06/2020 11:00 340.10 0.00 3.0 4.48
09/06/2020 10:00 340.10 0.00 3.0 4.48
09/06/2020 09:00 340.10 0.00 3.0 4.48
09/06/2020 08:00 340.10 0.00 3.0 4.48
09/06/2020 07:00 340.10 0.00 3.0 4.48
09/06/2020 06:00 340.10 0.00 3.0 4.48
09/06/2020 05:00 340.10 0.00 3.0 4.48
09/06/2020 04:00 340.10 0.00 3.0 4.48
09/06/2020 03:00 340.10 0.00 3.0 4.48
09/06/2020 02:00 340.10 0.00 3.0 4.48
09/06/2020 01:00 340.10 0.00 3.0 4.48
09/06/2020 00:00 340.10 0.00 3.0 4.48
09/05/2020 23:00 340.10 0.00 3.0 4.48
09/05/2020 22:00 340.10 0.00 3.2 4.49
09/05/2020 21:00 -- -- -- --
09/05/2020 20:00 -- -- -- --
09/05/2020 19:00 -- -- -- --
09/05/2020 18:00 -- -- -- --
09/05/2020 17:00 -- -- -- --
09/05/2020 16:00 -- -- -- --
09/05/2020 15:00 -- -- -- --
09/05/2020 14:00 -- -- -- --
09/05/2020 13:00 -- -- -- --
09/05/2020 12:00 -- -- -- --
09/05/2020 11:00 -- -- -- --
09/05/2020 10:00 -- -- -- --
09/05/2020 09:00 -- -- -- --
09/05/2020 08:00 -- -- -- --
09/05/2020 07:00 -- -- -- --
09/05/2020 06:00 -- -- -- --
09/05/2020 05:00 -- -- -- --